| DS18B20 | SHTC3 | PZEM-004T | WiFi | ||||||||
|---|---|---|---|---|---|---|---|---|---|---|---|
| ID | Date d/m/Y & Time | data1 สูง | data2 ต่ำ | data3 นอก | temp pcb | hum pcb | Volt | Amp | Watt | rssi | Time |
| 7077 | 27/07/2026 14:27:05 | 33.8  | 32.2  | 33.2  | 34.5  | 62.0  | 231.2  | 0.04  | 4.6  | -78  | 14:27 |
| 7076 | 27/07/2026 14:22:22 | 33.8  | 32.1  | 33.5  | 34.7  | 62.1  | 233.1  | 0.04  | 4.6  | -81  | 14:22 |
| 7075 | 27/07/2026 14:17:38 | 33.8  | 32.1  | 33.6  | 34.6  | 62.2  | 233.0  | 0.04  | 4.6  | -82  | 14:17 |
| 7074 | 27/07/2026 14:12:56 | 33.8  | 32.1  | 33.4  | 34.6  | 62.1  | 233.6  | 0.04  | 4.6  | -83  | 14:12 |
| 7073 | 27/07/2026 14:08:11 | 33.8  | 32.1  | 33.5  | 34.7  | 62.1  | 231.3  | 0.04  | 4.5  | -79  | 14:08 |
| 7072 | 27/07/2026 14:03:28 | 33.8  | 32.0  | 33.5  | 34.6  | 62.0  | 232.5  | 0.04  | 4.6  | -76  | 14:03 |
| 7071 | 27/07/2026 13:58:45 | 33.8  | 32.0  | 33.5  | 34.5  | 61.8  | 232.4  | 0.04  | 4.5  | -83  | 13:58 |
| 7070 | 27/07/2026 13:54:02 | 33.8  | 31.9  | 33.4  | 34.6  | 61.8  | 233.5  | 0.04  | 4.6  | -77  | 13:54 |
| 7069 | 27/07/2026 13:49:18 | 33.8  | 31.9  | 33.4  | 34.4  | 61.9  | 233.6  | 0.04  | 4.6  | -79  | 13:49 |
| 7068 | 27/07/2026 13:44:35 | 33.7  | 31.9  | 33.2  | 34.4  | 61.6  | 234.2  | 0.04  | 4.6  | -78  | 13:44 |
| 7067 | 27/07/2026 13:39:51 | 33.7  | 31.8  | 33.2  | 34.5  | 61.7  | 234.1  | 0.04  | 4.6  | -80  | 13:39 |
| 7066 | 27/07/2026 13:35:08 | 33.7  | 31.8  | 33.0  | 34.3  | 62.0  | 234.4  | 0.04  | 4.6  | -77  | 13:35 |
| 7065 | 27/07/2026 13:30:26 | 33.6  | 31.8  | 33.0  | 34.3  | 61.8  | 234.3  | 0.04  | 4.6  | -78  | 13:30 |
| 7064 | 27/07/2026 13:25:40 | 33.6  | 31.8  | 33.2  | 34.3  | 61.8  | 234.8  | 0.04  | 4.6  | -78  | 13:25 |
| 7063 | 27/07/2026 13:20:57 | 33.5  | 31.6  | 33.2  | 34.2  | 62.3  | 234.5  | 0.04  | 4.6  | -78  | 13:20 |
| 7062 | 27/07/2026 13:16:14 | 33.5  | 31.6  | 33.1  | 34.1  | 62.2  | 234.7  | 0.04  | 4.6  | -77  | 13:16 |
| 7061 | 27/07/2026 13:11:29 | 33.4  | 31.6  | 32.8  | 34.2  | 62.3  | 234.8  | 0.04  | 4.6  | -79  | 13:11 |
| 7060 | 27/07/2026 13:06:47 | 33.4  | 31.6  | 33.0  | 34.1  | 62.3  | 234.5  | 0.04  | 4.5  | -79  | 13:06 |
| 7059 | 27/07/2026 13:02:00 | 33.4  | 31.5  | 32.9  | 34.2  | 62.3  | 235.4  | 0.04  | 4.6  | -78  | 13:02 |
| 7058 | 27/07/2026 12:57:17 | 33.4  | 31.4  | 32.8  | 34.1  | 62.4  | 234.8  | 0.04  | 4.6  | -78  | 12:57 |
| 7057 | 27/07/2026 12:52:34 | 33.4  | 31.4  | 32.9  | 34.1  | 62.3  | 234.2  | 0.04  | 4.6  | -79  | 12:52 |
| 7056 | 27/07/2026 12:47:51 | 33.4  | 31.4  | 33.0  | 34.0  | 62.3  | 235.3  | 0.04  | 4.6  | -78  | 12:47 |
| 7055 | 27/07/2026 12:43:08 | 33.3  | 31.3  | 33.0  | 34.0  | 62.3  | 235.4  | 0.04  | 4.6  | -79  | 12:43 |
| 7054 | 27/07/2026 12:38:25 | 33.2  | 31.2  | 32.7  | 34.0  | 62.2  | 235.6  | 0.04  | 4.6  | -79  | 12:38 |